Purdue University Airport
KLAF : now visible

Airfield :











YOU CAN JOIN US ON...

 
LOGIN :

Register | Disclaimer

   EN    FR    IT 

 









Legend :    VFR   Marginal VFR   IFR   Intensive IFR   Very Intensive IFR
Visi :
Ceiling :
>= 8 km
>= 3000ft
5 to 8 km
1000 to 3000 ft
1500m to 5 km
500 to 1000 ft
800 to 1500m
200 to 500 ft
< 800m
< 200 ft
Symbols :   Thunderstorms  Fog  Heavy snow  Heavy precipitations  Wind > 20 kt







- Airport Elevation : 606 ft
- IATA code : LAF


KLAF - Purdue University

CURRENT METAR :
  • 181903Z 18004KT 10SM VCTS BKN029 BKN040 32/24 A2992 RMK AO2 LTG DSNT N T03170244

EXPIRED METARs :
  • 181754Z 20004KT 10SM CLR 31/24 A2993 RMK AO2 SLP130 T03060239 10311 20244 58001
  • 181654Z 22005KT 10SM CLR 31/23 A2994 RMK AO2 SLP133 T03110233

TAF KLAF
Valid from the 18 at 18:00 until the 19 at 18:00 UTC


181720Z 1818/1918 23007KT P6SM FEW120 SCT250
FM190200 22004KT P6SM SCT250
FM191400 22007KT P6SM FEW250
KZAU FIR / North America



MET'MAP, your aeronautical weather chart ! - Copyright ORBIFLY December 2007 - Disclaimer

ORBIFLY MET'MAP TEAM :

Programming & Development : Alexandra Zaïnal
Concept & Development : Baudouin d'Aumeries
Co-Development & Prog : Marc-Olivier Méhu
Technical & hardware support : Manuel Goepfert

Contact : metmap@orbifly.com




SOURCES & CREDITS :

   NOAA       Earth
Advisory